createdAt,value
2022-08-01T00:00:13.751Z,15.01
2022-08-01T00:03:02.964Z,14.95
2022-08-01T00:05:32.637Z,14.88
2022-08-01T00:08:01.529Z,14.81
2022-08-01T00:10:30.520Z,14.78
2022-08-01T00:12:59.345Z,14.76
2022-08-01T00:15:28.374Z,14.69
2022-08-01T00:17:57.193Z,14.61
2022-08-01T00:20:26.399Z,14.56
2022-08-01T00:22:55.181Z,14.54
2022-08-01T00:25:34.173Z,14.52
2022-08-01T00:28:04.267Z,14.51
2022-08-01T00:37:38.429Z,14.35
2022-08-01T00:40:12.354Z,14.29
2022-08-01T00:42:44.592Z,14.27
2022-08-01T00:45:16.941Z,14.28
2022-08-01T00:47:49.391Z,14.28
2022-08-01T00:50:29.139Z,14.27
2022-08-01T00:53:02.144Z,14.29
2022-08-01T00:55:35.293Z,14.27
2022-08-01T00:58:08.512Z,14.24
2022-08-01T01:00:52.962Z,14.24
2022-08-01T01:03:56.301Z,14.29
2022-08-01T01:06:29.330Z,14.30
2022-08-01T01:09:18.585Z,14.33
2022-08-01T01:12:04.173Z,14.37
2022-08-01T01:14:47.443Z,14.37
2022-08-01T01:17:49.748Z,14.41
2022-08-01T01:20:18.523Z,14.45
2022-08-01T01:23:11.555Z,14.45
2022-08-01T01:26:07.340Z,14.47
2022-08-01T01:28:52.007Z,14.49
2022-08-01T01:31:26.719Z,14.53
2022-08-01T01:34:01.214Z,14.57
2022-08-01T01:36:35.999Z,14.59
2022-08-01T01:39:09.129Z,14.61
2022-08-01T01:41:43.540Z,14.61
2022-08-01T01:44:17.550Z,14.63
2022-08-01T01:46:51.118Z,14.66
2022-08-01T01:49:27.940Z,14.67
2022-08-01T01:52:03.980Z,14.68
2022-08-01T01:54:43.035Z,14.70
2022-08-01T01:57:19.237Z,14.69
2022-08-01T01:59:55.543Z,14.69
2022-08-01T02:02:29.350Z,14.69
2022-08-01T02:05:03.095Z,14.69
2022-08-01T02:07:37.027Z,14.70
2022-08-01T02:10:12.479Z,14.72
2022-08-01T02:12:46.661Z,14.75
2022-08-01T02:15:20.494Z,14.78
2022-08-01T02:17:55.054Z,14.77
2022-08-01T02:20:55.148Z,14.78
2022-08-01T02:23:30.836Z,14.77
2022-08-01T02:26:10.993Z,14.79
2022-08-01T02:28:49.942Z,14.82
2022-08-01T02:31:24.927Z,14.80
2022-08-01T02:34:04.422Z,14.79
2022-08-01T02:36:38.676Z,14.80
2022-08-01T02:39:15.208Z,14.80
2022-08-01T02:41:51.438Z,14.81
2022-08-01T02:44:31.089Z,14.81
2022-08-01T02:47:05.752Z,14.87
2022-08-01T02:49:41.453Z,14.92
2022-08-01T02:52:21.119Z,14.97
2022-08-01T02:54:57.276Z,15.01
2022-08-01T02:57:51.893Z,15.02
2022-08-01T03:00:27.204Z,15.01
2022-08-01T03:03:01.693Z,15.03
2022-08-01T03:05:35.167Z,15.06
2022-08-01T03:08:14.563Z,15.08
2022-08-01T03:10:49.193Z,15.09
2022-08-01T03:13:22.645Z,15.09
2022-08-01T03:15:56.741Z,15.06
2022-08-01T03:18:33.153Z,15.05
2022-08-01T03:21:06.466Z,15.04
2022-08-01T03:23:40.621Z,15.00
2022-08-01T03:26:13.575Z,14.96
2022-08-01T03:28:49.398Z,14.94
2022-08-01T03:31:22.499Z,14.91
2022-08-01T03:33:54.868Z,14.90
2022-08-01T03:36:30.894Z,14.89
2022-08-01T03:39:06.789Z,14.84
2022-08-01T03:41:43.750Z,14.79
2022-08-01T03:44:19.987Z,14.77
2022-08-01T03:46:56.242Z,14.76
2022-08-01T03:49:32.490Z,14.77
2022-08-01T03:52:08.851Z,14.79
2022-08-01T03:54:43.168Z,14.78
2022-08-01T03:57:36.142Z,14.77
2022-08-01T04:00:11.904Z,14.77
2022-08-01T04:02:47.592Z,14.76
2022-08-01T04:05:20.205Z,14.75
2022-08-01T04:07:59.631Z,14.75
2022-08-01T04:10:35.249Z,14.75
2022-08-01T04:13:07.551Z,14.68
2022-08-01T04:15:40.879Z,14.65
2022-08-01T04:18:13.341Z,14.63
2022-08-01T04:20:48.794Z,14.58
2022-08-01T04:23:23.174Z,14.56
2022-08-01T04:25:57.666Z,14.57
2022-08-01T04:28:30.770Z,14.59
2022-08-01T04:31:05.795Z,14.60
2022-08-01T04:33:42.958Z,14.59
2022-08-01T04:36:17.703Z,14.57
2022-08-01T04:38:53.396Z,14.57
2022-08-01T04:41:28.469Z,14.51
2022-08-01T04:44:01.757Z,14.48
2022-08-01T04:46:35.856Z,14.49
2022-08-01T04:49:13.321Z,14.49
2022-08-01T04:51:58.731Z,14.53
2022-08-01T04:54:34.305Z,14.51
2022-08-01T04:57:08.283Z,14.52
2022-08-01T04:59:44.914Z,14.57
2022-08-01T05:02:19.181Z,14.59
2022-08-01T05:04:51.556Z,14.63
2022-08-01T05:07:23.732Z,14.62
2022-08-01T05:09:56.121Z,14.58
2022-08-01T05:12:28.221Z,14.62
2022-08-01T05:15:00.643Z,14.69
2022-08-01T05:17:33.282Z,14.77
2022-08-01T05:20:07.356Z,14.83
2022-08-01T05:22:42.192Z,14.89
2022-08-01T05:25:20.331Z,14.93
2022-08-01T05:27:55.473Z,14.98
2022-08-01T05:30:30.471Z,15.05
2022-08-01T05:33:03.243Z,15.08
2022-08-01T05:35:48.525Z,15.09
2022-08-01T05:38:21.434Z,15.14
2022-08-01T05:40:53.816Z,15.16
2022-08-01T05:43:29.255Z,15.23
2022-08-01T05:46:03.200Z,15.38
2022-08-01T05:48:35.443Z,15.53
2022-08-01T05:51:08.267Z,15.62
2022-08-01T05:53:40.595Z,15.70
2022-08-01T05:56:13.416Z,15.71
2022-08-01T05:58:45.991Z,15.70
2022-08-01T06:01:18.268Z,15.76
2022-08-01T06:03:50.508Z,15.85
2022-08-01T06:06:25.342Z,15.93
2022-08-01T06:08:58.106Z,15.97
2022-08-01T06:11:33.837Z,15.95
2022-08-01T06:14:06.403Z,15.92
2022-08-01T06:16:38.727Z,15.92
2022-08-01T06:19:14.120Z,16.05
2022-08-01T06:21:46.529Z,16.22
2022-08-01T06:24:27.840Z,16.42
2022-08-01T06:27:22.038Z,16.60
2022-08-01T06:29:56.123Z,16.79
2022-08-01T06:32:33.396Z,16.95
2022-08-01T06:35:10.180Z,17.13
2022-08-01T06:37:43.363Z,17.28
2022-08-01T06:40:17.415Z,17.40
2022-08-01T06:42:50.389Z,17.54
2022-08-01T06:45:23.839Z,17.72
2022-08-01T06:47:56.382Z,17.85
2022-08-01T06:50:28.596Z,18.05
2022-08-01T06:53:00.880Z,18.22
2022-08-01T06:55:37.496Z,18.34
2022-08-01T06:58:09.679Z,18.49
2022-08-01T07:00:43.449Z,18.69
2022-08-01T07:03:15.994Z,18.85
2022-08-01T07:05:50.948Z,18.97
2022-08-01T07:08:23.224Z,19.07
2022-08-01T07:10:56.729Z,19.21
2022-08-01T07:13:36.691Z,19.22
2022-08-01T07:16:17.654Z,19.22
2022-08-01T07:18:49.894Z,19.28
2022-08-01T07:21:40.463Z,19.43
2022-08-01T07:24:15.686Z,19.63
2022-08-01T07:26:53.452Z,19.80
2022-08-01T07:29:29.013Z,19.98
2022-08-01T07:32:01.893Z,20.11
2022-08-01T07:34:34.211Z,20.28
2022-08-01T07:37:06.379Z,20.41
2022-08-01T07:39:38.681Z,20.50
2022-08-01T07:42:11.311Z,20.54
2022-08-01T07:44:44.393Z,20.60
2022-08-01T07:47:16.894Z,20.71
2022-08-01T07:49:49.912Z,20.83
2022-08-01T07:52:24.742Z,20.94
2022-08-01T07:54:57.401Z,21.03
2022-08-01T07:57:32.337Z,21.08
2022-08-01T08:00:05.761Z,21.12
2022-08-01T08:02:37.991Z,21.16
2022-08-01T08:05:11.797Z,21.19
2022-08-01T08:07:44.244Z,21.26
2022-08-01T08:10:16.533Z,21.32
2022-08-01T08:12:49.535Z,21.37
2022-08-01T08:15:25.127Z,21.34
2022-08-01T08:17:58.474Z,21.34
2022-08-01T08:20:30.892Z,21.31
2022-08-01T08:23:41.435Z,21.27
2022-08-01T08:26:16.052Z,21.20
2022-08-01T08:28:48.604Z,21.16
2022-08-01T08:31:50.970Z,21.19
2022-08-01T08:34:17.145Z,21.24
2022-08-01T08:36:49.930Z,21.29
2022-08-01T08:39:24.913Z,21.32
2022-08-01T08:41:58.821Z,21.30
2022-08-01T08:44:31.035Z,21.29
2022-08-01T08:47:06.515Z,21.26
2022-08-01T08:49:44.355Z,21.25
2022-08-01T08:52:23.737Z,21.28
2022-08-01T08:54:57.840Z,21.29
2022-08-01T08:57:32.372Z,21.28
2022-08-01T09:00:05.939Z,21.27
2022-08-01T09:02:38.312Z,21.26
2022-08-01T09:05:15.047Z,21.30
2022-08-01T09:07:51.303Z,21.37
2022-08-01T09:10:23.766Z,21.44
2022-08-01T09:13:12.857Z,21.53
2022-08-01T09:15:47.348Z,21.62
2022-08-01T09:18:35.020Z,21.72
2022-08-01T09:21:17.382Z,21.87
2022-08-01T09:23:53.479Z,21.99
2022-08-01T09:26:34.409Z,22.12
2022-08-01T09:29:10.427Z,22.26
2022-08-01T09:31:48.082Z,22.40
2022-08-01T09:34:28.361Z,22.63
2022-08-01T09:37:03.422Z,22.84
2022-08-01T09:39:38.787Z,23.06
2022-08-01T09:42:28.734Z,23.25
2022-08-01T09:45:02.737Z,23.33
2022-08-01T09:47:42.010Z,23.32
2022-08-01T09:50:18.874Z,23.27
2022-08-01T09:52:58.186Z,23.20
2022-08-01T09:55:30.659Z,23.07
2022-08-01T09:58:02.889Z,22.98
2022-08-01T10:00:45.554Z,22.89
2022-08-01T10:03:25.964Z,22.84
2022-08-01T10:06:01.838Z,22.78
2022-08-01T10:08:49.778Z,22.79
2022-08-01T10:11:35.801Z,22.82
2022-08-01T10:14:09.252Z,22.83
2022-08-01T10:16:42.169Z,22.81
2022-08-01T10:19:15.530Z,22.84
2022-08-01T10:21:57.676Z,22.86
2022-08-01T10:24:33.626Z,22.92
2022-08-01T10:27:09.199Z,23.01
2022-08-01T10:30:06.079Z,23.09
2022-08-01T10:32:40.903Z,23.06
2022-08-01T10:35:18.249Z,23.13
2022-08-01T10:38:13.710Z,23.27
2022-08-01T10:40:46.790Z,23.36
2022-08-01T10:43:21.966Z,23.45
2022-08-01T10:45:55.236Z,23.55
2022-08-01T10:48:35.882Z,23.63
2022-08-01T10:51:17.886Z,23.74
2022-08-01T10:53:56.172Z,23.78
2022-08-01T10:56:44.935Z,23.83
2022-08-01T10:59:29.066Z,23.91
2022-08-01T11:02:31.703Z,23.92
2022-08-01T11:05:14.456Z,23.96
2022-08-01T11:07:55.013Z,24.16
2022-08-01T11:10:28.247Z,24.38
2022-08-01T11:13:02.155Z,24.54
2022-08-01T11:15:37.447Z,24.69
2022-08-01T11:18:37.668Z,24.79
2022-08-01T11:21:58.666Z,24.92
2022-08-01T11:24:03.999Z,24.99
2022-08-01T11:26:36.253Z,25.01
2022-08-01T11:29:22.758Z,24.95
2022-08-01T11:32:15.929Z,24.91
2022-08-01T11:34:58.490Z,24.91
2022-08-01T11:37:33.064Z,24.92
2022-08-01T11:40:24.985Z,24.90
2022-08-01T11:43:20.531Z,24.86
2022-08-01T11:45:56.232Z,24.85
2022-08-01T11:48:30.562Z,24.83
2022-08-01T11:51:03.133Z,24.73
2022-08-01T11:53:36.756Z,24.67
2022-08-01T11:56:09.900Z,24.66
2022-08-01T11:58:42.373Z,24.65
2022-08-01T12:01:16.653Z,24.59
2022-08-01T12:03:57.731Z,24.56
2022-08-01T12:06:32.611Z,24.57
2022-08-01T12:12:06.784Z,24.83
2022-08-01T12:14:39.215Z,24.85
2022-08-01T12:17:11.440Z,24.88
2022-08-01T12:19:44.835Z,24.96
2022-08-01T12:22:18.333Z,25.05
2022-08-01T12:24:50.622Z,25.12
2022-08-01T12:27:30.342Z,25.15
2022-08-01T12:30:03.376Z,25.19
2022-08-01T12:32:37.782Z,25.26
2022-08-01T12:35:16.483Z,25.30
2022-08-01T12:37:52.951Z,25.40
2022-08-01T12:40:27.099Z,25.46
2022-08-01T12:43:03.277Z,25.51
2022-08-01T12:45:40.594Z,25.53
2022-08-01T12:48:27.439Z,25.51
2022-08-01T12:51:03.676Z,25.51
2022-08-01T12:53:41.067Z,25.54
2022-08-01T12:56:15.831Z,25.56
2022-08-01T12:58:48.189Z,25.58
2022-08-01T13:01:29.474Z,25.59
2022-08-01T13:04:06.163Z,25.56
2022-08-01T13:06:38.986Z,25.52
2022-08-01T13:09:12.880Z,25.49
2022-08-01T13:12:03.809Z,25.42
2022-08-01T13:14:37.256Z,25.41
2022-08-01T13:17:31.612Z,25.44
2022-08-01T13:20:03.861Z,25.46
2022-08-01T13:22:41.316Z,25.46
2022-08-01T13:25:22.284Z,25.44
2022-08-01T13:28:18.548Z,25.40
2022-08-01T13:30:59.015Z,25.38
2022-08-01T13:33:43.806Z,25.33
2022-08-01T13:36:16.712Z,25.27
2022-08-01T13:39:07.109Z,25.20
2022-08-01T13:41:41.609Z,25.17
2022-08-01T13:44:14.444Z,25.16
2022-08-01T13:46:49.821Z,25.14
2022-08-01T13:49:23.783Z,25.06
2022-08-01T13:51:56.057Z,25.01
2022-08-01T13:54:28.661Z,25.02
2022-08-01T13:57:01.297Z,25.04
2022-08-01T13:59:33.736Z,25.02
2022-08-01T14:02:06.284Z,24.99
2022-08-01T14:04:38.678Z,24.98
2022-08-01T14:07:14.535Z,24.96
2022-08-01T14:10:04.324Z,24.91
2022-08-01T14:12:40.053Z,24.88
2022-08-01T14:15:13.495Z,24.90
2022-08-01T14:17:47.907Z,24.93
2022-08-01T14:20:20.956Z,24.96
2022-08-01T14:22:53.192Z,24.99
2022-08-01T14:26:03.789Z,24.98
2022-08-01T14:28:17.943Z,24.95
2022-08-01T14:30:50.011Z,24.99
2022-08-01T14:33:22.249Z,25.04
2022-08-01T14:36:05.266Z,25.08
2022-08-01T14:38:49.551Z,25.17
2022-08-01T14:41:22.597Z,25.23
2022-08-01T14:43:54.839Z,25.27
2022-08-01T14:46:27.134Z,25.31
2022-08-01T14:48:59.325Z,25.29
2022-08-01T14:51:34.151Z,25.25
2022-08-01T14:54:06.866Z,25.28
2022-08-01T14:56:41.054Z,25.34
2022-08-01T14:59:21.740Z,25.38
2022-08-01T15:01:54.628Z,25.38
2022-08-01T15:04:27.014Z,25.35
2022-08-01T15:06:59.191Z,25.32
2022-08-01T15:09:31.737Z,25.32
2022-08-01T15:12:04.251Z,25.26
2022-08-01T15:14:52.144Z,25.20
2022-08-01T15:17:26.278Z,25.15
2022-08-01T15:20:00.059Z,25.05
2022-08-01T15:22:33.076Z,24.96
2022-08-01T15:25:06.398Z,24.90
2022-08-01T15:27:38.760Z,24.86
2022-08-01T15:30:12.245Z,24.78
2022-08-01T15:32:44.605Z,24.73
2022-08-01T15:35:16.908Z,24.76
2022-08-01T15:37:49.123Z,24.78
2022-08-01T15:40:21.499Z,24.82
2022-08-01T15:42:54.345Z,24.82
2022-08-01T15:48:20.516Z,24.86
2022-08-01T15:50:52.837Z,24.88
2022-08-01T15:53:25.086Z,24.91
2022-08-01T15:55:57.801Z,24.90
2022-08-01T15:58:30.108Z,24.87
2022-08-01T16:01:02.439Z,24.85
2022-08-01T16:03:34.717Z,24.80
2022-08-01T16:06:08.103Z,24.74
2022-08-01T16:08:40.361Z,24.69
2022-08-01T16:11:12.654Z,24.63
2022-08-01T16:13:46.462Z,24.58
2022-08-01T16:16:18.981Z,24.57
2022-08-01T16:18:53.926Z,24.55
2022-08-01T16:21:26.306Z,24.56
2022-08-01T16:23:58.657Z,24.59
2022-08-01T16:26:30.895Z,24.61
2022-08-01T16:29:03.045Z,24.62
2022-08-01T16:32:02.579Z,24.57
2022-08-01T16:34:28.051Z,24.54
2022-08-01T16:37:02.701Z,24.52
2022-08-01T16:39:35.128Z,24.49
2022-08-01T16:42:08.121Z,24.47
2022-08-01T16:44:41.517Z,24.39
2022-08-01T16:47:14.077Z,24.30
2022-08-01T16:49:46.304Z,24.27
2022-08-01T16:52:18.907Z,24.23
2022-08-01T16:54:51.143Z,24.23
2022-08-01T16:57:23.402Z,24.23
2022-08-01T16:59:55.513Z,24.23
2022-08-01T17:02:28.728Z,24.15
2022-08-01T17:05:01.027Z,24.11
2022-08-01T17:07:39.606Z,24.07
2022-08-01T17:10:14.208Z,24.03
2022-08-01T17:12:46.698Z,23.94
2022-08-01T17:15:18.932Z,23.92
2022-08-01T17:17:53.362Z,23.91
2022-08-01T17:20:29.938Z,23.86
2022-08-01T17:23:02.422Z,23.84
2022-08-01T17:25:34.649Z,23.81
2022-08-01T17:28:07.269Z,23.78
2022-08-01T17:30:40.556Z,23.70
2022-08-01T17:33:12.674Z,23.64
2022-08-01T17:35:47.131Z,23.59
2022-08-01T17:38:19.643Z,23.51
2022-08-01T17:40:51.849Z,23.43
2022-08-01T17:43:24.210Z,23.35
2022-08-01T17:45:57.662Z,23.26
2022-08-01T17:48:30.127Z,23.18
2022-08-01T17:51:02.359Z,23.12
2022-08-01T17:53:35.116Z,23.06
2022-08-01T17:56:10.152Z,23.04
2022-08-01T17:58:51.796Z,23.01
2022-08-01T18:01:27.621Z,23.00
2022-08-01T18:04:01.485Z,22.97
2022-08-01T18:06:35.910Z,22.93
2022-08-01T18:09:11.230Z,22.93
2022-08-01T18:11:43.708Z,22.89
2022-08-01T18:14:16.770Z,22.84
2022-08-01T18:16:49.044Z,22.76
2022-08-01T18:19:21.759Z,22.67
2022-08-01T18:21:54.503Z,22.60
2022-08-01T18:24:26.859Z,22.52
2022-08-01T18:26:59.760Z,22.46
2022-08-01T18:29:48.173Z,22.39
2022-08-01T18:32:21.746Z,22.32
2022-08-01T18:34:54.151Z,22.24
2022-08-01T18:37:26.796Z,22.14
2022-08-01T18:40:02.743Z,22.04
2022-08-01T18:42:37.202Z,21.99
2022-08-01T18:45:11.388Z,21.89
2022-08-01T18:47:45.099Z,21.81
2022-08-01T18:50:17.593Z,21.75
2022-08-01T18:52:50.002Z,21.71
2022-08-01T18:55:22.709Z,21.66
2022-08-01T18:57:55.704Z,21.63
2022-08-01T19:00:27.986Z,21.59
2022-08-01T19:03:00.677Z,21.56
2022-08-01T19:05:35.065Z,21.48
2022-08-01T19:08:13.942Z,21.41
2022-08-01T19:10:47.552Z,21.36
2022-08-01T19:13:20.783Z,21.30
2022-08-01T19:15:53.282Z,21.25
2022-08-01T19:18:36.871Z,21.21
2022-08-01T19:21:09.750Z,21.14
2022-08-01T19:23:59.551Z,21.10
2022-08-01T19:26:35.875Z,21.07
2022-08-01T19:29:20.098Z,21.04
2022-08-01T19:31:55.175Z,20.98
2022-08-01T19:34:29.650Z,20.93
2022-08-01T19:37:02.456Z,20.86
2022-08-01T19:39:36.764Z,20.82
2022-08-01T19:42:10.113Z,20.79
2022-08-01T19:44:46.980Z,20.81
2022-08-01T19:47:24.025Z,20.78
2022-08-01T19:49:57.080Z,20.71
2022-08-01T19:52:31.873Z,20.65
2022-08-01T19:55:07.536Z,20.62
2022-08-01T19:57:45.614Z,20.62
2022-08-01T20:00:27.691Z,20.58
2022-08-01T20:03:02.911Z,20.54
2022-08-01T20:05:36.519Z,20.52
2022-08-01T20:08:11.597Z,20.49
2022-08-01T20:10:44.414Z,20.49
2022-08-01T20:13:20.335Z,20.50
2022-08-01T20:15:54.236Z,20.50
2022-08-01T20:18:26.736Z,20.47
2022-08-01T20:21:00.072Z,20.47
2022-08-01T20:23:33.105Z,20.47
2022-08-01T20:26:06.766Z,20.46
2022-08-01T20:28:42.029Z,20.46
2022-08-01T20:31:14.550Z,20.46
2022-08-01T20:33:49.823Z,20.44
2022-08-01T20:36:25.175Z,20.40
2022-08-01T20:39:00.420Z,20.42
2022-08-01T20:41:33.017Z,20.40
2022-08-01T20:44:07.409Z,20.40
2022-08-01T20:46:40.510Z,20.40
2022-08-01T20:49:14.777Z,20.43
2022-08-01T20:51:49.002Z,20.45
2022-08-01T20:54:21.681Z,20.37
2022-08-01T20:57:01.006Z,20.30
2022-08-01T20:59:56.778Z,20.28
2022-08-01T21:02:41.438Z,20.28
2022-08-01T21:05:17.401Z,20.31
2022-08-01T21:07:54.056Z,20.30
2022-08-01T21:10:30.660Z,20.30
2022-08-01T21:13:06.266Z,20.31
2022-08-01T21:16:07.490Z,20.30
2022-08-01T21:18:58.143Z,20.26
2022-08-01T21:21:42.341Z,20.21
2022-08-01T21:24:18.972Z,20.20
2022-08-01T21:26:54.900Z,20.22
2022-08-01T21:29:30.037Z,20.24
2022-08-01T21:32:15.587Z,20.24
2022-08-01T21:34:51.858Z,20.23
2022-08-01T21:37:24.743Z,20.20
2022-08-01T21:39:58.805Z,20.17
2022-08-01T21:42:31.115Z,20.16
2022-08-01T21:45:05.383Z,20.13
2022-08-01T21:47:39.092Z,20.11
2022-08-01T21:50:11.836Z,20.08
2022-08-01T21:52:50.417Z,20.03
2022-08-01T21:55:32.201Z,19.98
2022-08-01T21:58:24.879Z,19.96
2022-08-01T22:01:04.078Z,19.91
2022-08-01T22:03:43.738Z,19.89
2022-08-01T22:06:17.713Z,19.85
2022-08-01T22:08:54.181Z,19.82
2022-08-01T22:11:29.686Z,19.76
2022-08-01T22:14:06.318Z,19.65
2022-08-01T22:16:40.898Z,19.59
2022-08-01T22:19:29.617Z,19.54
2022-08-01T22:22:09.021Z,19.51
2022-08-01T22:25:04.534Z,19.44
2022-08-01T22:28:03.183Z,19.42
2022-08-01T22:30:35.695Z,19.37
2022-08-01T22:33:16.447Z,19.36
2022-08-01T22:35:53.632Z,19.32
2022-08-01T22:38:27.377Z,19.31
2022-08-01T22:41:05.589Z,19.28
2022-08-01T22:43:44.216Z,19.26
2022-08-01T22:46:26.335Z,19.23
2022-08-01T22:49:09.263Z,19.19
2022-08-01T22:51:55.525Z,19.16
2022-08-01T22:54:37.473Z,19.15
2022-08-01T22:57:22.625Z,19.12
2022-08-01T23:00:00.560Z,19.11
2022-08-01T23:02:35.441Z,19.08
2022-08-01T23:05:09.867Z,19.06
2022-08-01T23:07:46.445Z,19.03
2022-08-01T23:10:19.762Z,19.02
2022-08-01T23:12:54.249Z,19.00
2022-08-01T23:15:27.673Z,18.98
2022-08-01T23:18:02.221Z,18.98
2022-08-01T23:20:37.300Z,18.96
2022-08-01T23:23:10.858Z,18.94
2022-08-01T23:25:45.087Z,18.91
2022-08-01T23:28:17.952Z,18.88
2022-08-01T23:30:50.370Z,18.87
2022-08-01T23:33:22.598Z,18.86
2022-08-01T23:35:55.001Z,18.84
2022-08-01T23:38:27.676Z,18.82
2022-08-01T23:40:59.955Z,18.80
2022-08-01T23:43:33.024Z,18.78
2022-08-01T23:46:05.668Z,18.75
2022-08-01T23:48:38.739Z,18.74
2022-08-01T23:51:17.256Z,18.75
2022-08-01T23:53:56.343Z,18.75
2022-08-01T23:56:28.476Z,18.74
2022-08-01T23:59:02.915Z,18.72
